Aérodrome :







RETROUVEZ-NOUS SUR...

 
LOGIN :

S'inscrire | Disclaimer

   EN    FR    IT 

 









Légende :    VFR   VFR Marginal   IFR   IFR Intensif   IFR Très Intensif
Visi : 
Plafond : 
>= 8 km
>= 3000ft
5 à 8 km
1000 à 3000 ft
1500m à 5 km
500 à 1000 ft
800 à 1500m
200 à 500 ft
< 800m
< 200 ft
Symboles :   Orages  Brouillard  Fortes neiges  Fortes précipitations  Vent > 20 kt






- Altitude de l'aérodrome : 1074 ft


KHIE - Mount Washington Regional

DERNIER METAR :
  • 132313Z AUTO 17005KT 2SM TS HZ SCT050 BKN100 22/19 A2983 RMK AO2 LTG DSNT NE-S RAE02 TSB07 P0000 T02220189

METARs EXPIRÉS :
  • 132252Z AUTO 13003KT 10SM VCTS -RA FEW050 SCT070 OVC100 23/19 A2982 RMK AO2 LTG DSNT SE AND W RAB30 SLP096 P0000 T02280194
  • 132234Z AUTO 00000KT 10SM VCTS -RA SCT090 BKN120 23/19 A2981 RMK AO2 LTG DSNT S RAB30 P0000 T02330189
  • 132209Z AUTO 00000KT 10SM VCTS CLR 23/18 A2980 RMK AO2 LTG DSNT SW T02330178
  • 132152Z AUTO 03003KT 10SM FEW110 24/18 A2980 RMK AO2 LTG DSNT SW AND W SLP088 T02390178
  • 132052Z AUTO VRB03KT 10SM CLR 24/18 A2979 RMK AO2 SLP086 60010 T02440183 50009

TAF KHIE
Valide du 13 à 19h jusqu'au 14 à 18h UTC


131850Z 1319/1418 VRB03KT P6SM BKN100
TEMPO 1319/1320 VRB05G20KT 2SM TSRA BKN030CB
FM140600 00000KT 1/2SM FG BKN001
FIR KZBW / Amérique du Nord



MET'MAP, la Météo Aéronautique d'un coup d'oeil ! - Copyright ORBIFLY Décembre 2007 - Disclaimer

ORBIFLY MET'MAP TEAM :

Programmation & Développement : Alexandra Zaïnal
Sur une idée originale de : Baudouin d'Aumeries
Assistance à la programmation : Marc-Olivier Méhu
Soutien technique & logistique : Manuel Goepfert

Contact : metmap@orbifly.com




SOURCES & CREDITS :

   NOAA